Time;durP1;ratioP1;P1;durP2;ratioP2;P2;SDS_P1;SDS_P2;PMS_P1;PMS_P2;Temp;Humidity;BMP_temperature;BMP_pressure;BME280_temperature;BME280_humidity;BME280_pressure;Samples;Min_cycle;Max_cycle;Signal;HPM_P1;HPM_P2
2024/01/15 00:00:12;;;;;;;58.90;16.35;;;;;;;-1.33;74.27;98978.59;5978430;23;20054;-86
2024/01/15 00:02:39;;;;;;;53.63;16.73;;;;;;;-1.38;74.61;98983.19;5977312;23;20102;-85
2024/01/15 00:05:06;;;;;;;54.53;15.23;;;;;;;-1.32;74.38;98975.06;5978276;23;20063;-85
2024/01/15 00:07:32;;;;;;;51.15;16.70;;;;;;;-1.36;74.86;98978.75;5977818;23;20385;-85
2024/01/15 00:09:59;;;;;;;57.78;18.00;;;;;;;-1.35;74.45;98977.84;5931893;23;20039;-85
2024/01/15 00:12:26;;;;;;;59.22;16.30;;;;;;;-1.30;74.23;98967.16;5977434;23;20076;-85
2024/01/15 00:14:53;;;;;;;59.85;16.60;;;;;;;-1.26;74.59;98963.47;5977146;23;20448;-85
2024/01/15 00:17:20;;;;;;;45.17;14.48;;;;;;;-1.26;74.36;98955.66;5977273;23;20028;-85
2024/01/15 00:19:46;;;;;;;54.10;15.88;;;;;;;-1.23;74.76;98952.06;5953892;23;20031;-85
2024/01/15 00:22:13;;;;;;;45.72;13.30;;;;;;;-1.22;74.54;98940.69;5978581;23;20389;-85
2024/01/15 00:24:40;;;;;;;56.70;17.20;;;;;;;-1.28;74.94;98941.03;5977429;23;20028;-85
2024/01/15 00:27:07;;;;;;;50.85;14.70;;;;;;;-1.25;74.94;98944.31;5955205;23;20028;-85
2024/01/15 00:29:34;;;;;;;57.33;15.68;;;;;;;-1.22;75.25;98936.34;5977135;23;20076;-84
2024/01/15 00:32:01;;;;;;;45.60;14.82;;;;;;;-1.21;75.29;98932.81;5953242;23;20320;-84
2024/01/15 00:34:28;;;;;;;59.95;17.73;;;;;;;-1.19;75.44;98919.72;5977290;23;20026;-84
2024/01/15 00:36:55;;;;;;;49.00;15.05;;;;;;;-1.19;75.53;98920.56;5976391;23;20030;-84
2024/01/15 00:39:22;;;;;;;51.17;15.38;;;;;;;-1.20;75.53;98918.03;5930832;23;20459;-84
2024/01/15 00:41:49;;;;;;;50.25;14.40;;;;;;;-1.21;75.57;98917.19;5977313;23;20047;-84
2024/01/15 00:44:16;;;;;;;48.75;14.25;;;;;;;-1.19;75.92;98924.94;6000173;23;20047;-84
2024/01/15 00:46:44;;;;;;;53.55;15.23;;;;;;;-1.19;76.10;98930.13;5976232;23;20024;-85
2024/01/15 00:49:13;;;;;;;53.53;14.98;;;;;;;-1.18;75.84;98930.03;5976154;23;20487;-84
2024/01/15 00:51:40;;;;;;;52.47;15.38;;;;;;;-1.20;76.04;98920.63;5999680;23;20608;-84
2024/01/15 00:54:07;;;;;;;47.88;15.18;;;;;;;-1.18;75.96;98918.78;5953021;23;20023;-85
2024/01/15 00:56:34;;;;;;;51.42;15.98;;;;;;;-1.17;76.27;98915.25;5954285;23;20046;-85
2024/01/15 00:59:01;;;;;;;51.08;14.95;;;;;;;-1.15;76.28;98909.03;5977990;23;20019;-85
2024/01/15 01:01:28;;;;;;;47.10;14.30;;;;;;;-1.15;76.47;98911.63;5955609;23;20023;-84
2024/01/15 01:03:55;;;;;;;45.17;13.60;;;;;;;-1.13;76.46;98906.34;5954631;23;20023;-85
2024/01/15 01:06:22;;;;;;;52.65;15.40;;;;;;;-1.14;76.88;98915.09;5955211;23;20027;-85
2024/01/15 01:08:48;;;;;;;52.63;15.27;;;;;;;-1.15;76.90;98911.63;5954861;23;20076;-85
2024/01/15 01:11:15;;;;;;;55.40;14.35;;;;;;;-1.11;76.84;98907.09;5978332;23;20035;-85
2024/01/15 01:13:42;;;;;;;58.47;15.25;;;;;;;-1.10;76.34;98903.56;5978102;23;20048;-85
2024/01/15 01:16:09;;;;;;;47.00;14.43;;;;;;;-1.09;76.64;98900.06;5978664;23;20024;-85
2024/01/15 01:18:36;;;;;;;51.28;14.85;;;;;;;-1.11;76.77;98904.50;5978749;23;20031;-85
2024/01/15 01:21:03;;;;;;;44.83;14.27;;;;;;;-1.17;77.78;98907.44;5979131;23;20115;-85
2024/01/15 01:23:30;;;;;;;49.20;15.60;;;;;;;-1.15;76.93;98901.22;5955954;23;20102;-84
2024/01/15 01:25:57;;;;;;;43.03;13.57;;;;;;;-1.12;77.03;98901.06;5956054;23;20031;-84
2024/01/15 01:28:24;;;;;;;52.25;16.00;;;;;;;-1.11;76.99;98914.91;5955621;23;20448;-86
2024/01/15 01:30:51;;;;;;;45.10;14.82;;;;;;;-1.08;77.06;98921.72;5978418;23;20027;-85
2024/01/15 01:33:18;;;;;;;44.92;13.52;;;;;;;-1.10;77.40;98924.41;5979656;23;20031;-85
2024/01/15 01:35:46;;;;;;;48.53;14.52;;;;;;;-1.08;77.38;98916.50;5955184;23;20054;-86
2024/01/15 01:38:13;;;;;;;49.40;15.18;;;;;;;-1.07;77.40;98920.78;5978735;23;20079;-86
2024/01/15 01:40:40;;;;;;;47.40;14.00;;;;;;;-1.04;77.30;98916.28;6002279;23;20047;-85
2024/01/15 01:43:09;;;;;;;50.10;14.70;;;;;;;-1.17;78.27;98917.84;5978801;23;20397;-85
2024/01/15 01:45:35;;;;;;;47.60;12.85;;;;;;;-1.16;78.28;98922.16;5979562;23;20051;-85
2024/01/15 01:48:03;;;;;;;46.88;14.20;;;;;;;-1.19;78.31;98915.34;5956099;23;20035;-86
2024/01/15 01:50:31;;;;;;;47.42;14.70;;;;;;;-1.18;78.59;98919.63;5979440;23;20096;-85
2024/01/15 01:52:59;;;;;;;56.47;15.90;;;;;;;-1.23;78.86;98918.19;5955362;23;20030;-84
2024/01/15 01:55:27;;;;;;;48.40;15.18;;;;;;;-1.27;79.23;98907.13;5978160;23;20302;-83
2024/01/15 01:57:55;;;;;;;51.10;14.52;;;;;;;-1.23;79.22;98899.97;5978198;23;20047;-84
2024/01/15 02:00:22;;;;;;;48.30;15.45;;;;;;;-1.32;79.68;98903.94;5978982;23;20023;-85
2024/01/15 02:02:49;;;;;;;51.50;15.13;;;;;;;-1.22;78.87;98893.81;5955972;23;20027;-85
2024/01/15 02:05:19;;;;;;;50.25;15.85;;;;;;;-1.25;79.18;98905.25;5956923;23;20031;-85
2024/01/15 02:07:46;;;;;;;49.88;14.98;;;;;;;-1.19;78.70;98899.72;5951274;23;20425;-85
2024/01/15 02:10:13;;;;;;;50.88;17.05;;;;;;;-1.20;79.28;98903.22;5975909;23;20028;-85
2024/01/15 02:12:40;;;;;;;49.53;16.30;;;;;;;-1.14;78.42;98899.47;5927671;23;20107;-85
2024/01/15 02:15:07;;;;;;;51.55;15.40;;;;;;;-1.14;78.51;98902.06;5928709;23;20100;-85
2024/01/15 02:17:34;;;;;;;41.40;14.20;;;;;;;-1.12;78.43;98898.47;5952336;23;20027;-86
2024/01/15 02:20:01;;;;;;;56.58;17.38;;;;;;;-1.13;78.39;98901.97;5932266;23;20034;-85
2024/01/15 02:22:28;;;;;;;47.17;14.27;;;;;;;-1.19;78.93;98897.09;5955977;23;20094;-86
2024/01/15 02:24:55;;;;;;;48.80;13.93;;;;;;;-1.15;78.24;98902.97;5955629;23;20020;-85
2024/01/15 02:27:22;;;;;;;46.25;14.90;;;;;;;-1.12;78.29;98913.22;5979152;23;20800;-84
2024/01/15 02:29:49;;;;;;;45.58;15.23;;;;;;;-1.14;78.03;98905.50;5978311;23;20020;-86
2024/01/15 02:32:15;;;;;;;42.15;14.63;;;;;;;-1.18;78.66;98908.38;5979432;23;20024;-85
2024/01/15 02:34:42;;;;;;;47.67;15.27;;;;;;;-1.26;79.16;98911.38;5978554;23;20046;-85
2024/01/15 02:37:09;;;;;;;52.03;16.27;;;;;;;-1.17;78.23;98908.28;6002319;23;20444;-85
2024/01/15 02:39:36;;;;;;;42.72;14.98;;;;;;;-1.15;78.28;98903.81;5955095;23;20355;-85
2024/01/15 02:42:02;;;;;;;46.65;15.48;;;;;;;-1.08;78.21;98911.31;5955418;23;22160;-86
2024/01/15 02:44:29;;;;;;;46.55;15.23;;;;;;;-1.11;78.17;98902.72;5979489;23;20016;-85
2024/01/15 02:46:56;;;;;;;48.25;14.80;;;;;;;-1.10;78.30;98907.00;5978303;23;20051;-86
2024/01/15 02:49:23;;;;;;;46.83;15.48;;;;;;;-1.10;77.92;98909.59;5979430;23;20016;-86
2024/01/15 02:51:49;;;;;;;50.00;15.65;;;;;;;-1.07;77.85;98910.38;5979180;23;20525;-86
2024/01/15 02:54:16;;;;;;;50.92;15.50;;;;;;;-1.06;77.83;98909.47;6001869;23;20027;-85
2024/01/15 02:56:43;;;;;;;51.63;15.20;;;;;;;-1.05;77.85;98896.31;5955205;23;20028;-85
2024/01/15 02:59:10;;;;;;;49.42;14.73;;;;;;;-1.09;78.19;98905.25;5954785;23;20076;-85
2024/01/15 03:01:37;;;;;;;48.17;13.75;;;;;;;-1.07;77.94;98905.16;5933081;23;20396;-86
2024/01/15 03:04:03;;;;;;;46.97;15.60;;;;;;;-1.05;77.79;98908.53;5978549;23;20040;-85
2024/01/15 03:06:30;;;;;;;42.50;14.38;;;;;;;-1.06;77.78;98899.88;5977456;23;20042;-85
2024/01/15 03:08:57;;;;;;;46.60;14.40;;;;;;;-1.05;77.71;98900.72;5954763;23;20624;-86
2024/01/15 03:11:24;;;;;;;39.75;14.60;;;;;;;-1.11;78.15;98904.50;5955317;23;20031;-86
2024/01/15 03:13:51;;;;;;;46.58;14.48;;;;;;;-1.08;78.14;98899.13;5978779;23;20098;-86
2024/01/15 03:16:19;;;;;;;45.92;15.88;;;;;;;-1.11;77.98;98907.09;5979241;23;20024;-85
2024/01/15 03:18:46;;;;;;;49.72;15.02;;;;;;;-1.11;78.15;98899.28;5977499;23;20031;-86
2024/01/15 03:21:13;;;;;;;45.97;15.00;;;;;;;-1.11;78.31;98900.13;5978735;23;20399;-85
2024/01/15 03:23:40;;;;;;;38.63;13.25;;;;;;;-1.10;78.19;98890.53;5979286;23;20016;-86
2024/01/15 03:26:07;;;;;;;36.65;12.93;;;;;;;-1.07;77.84;98884.31;5955819;23;20023;-84
2024/01/15 03:28:34;;;;;;;48.28;13.35;;;;;;;-1.07;78.03;98884.31;6000635;23;20027;-85
2024/01/15 03:31:00;;;;;;;44.13;14.70;;;;;;;-1.11;78.03;98886.25;5977819;23;20373;-84
2024/01/15 03:33:27;;;;;;;37.75;11.98;;;;;;;-1.03;77.83;98896.25;5978466;23;20344;-84
2024/01/15 03:35:54;;;;;;;42.53;12.85;;;;;;;-1.04;77.71;98904.97;5977112;23;20024;-84
2024/01/15 03:38:23;;;;;;;36.33;13.10;;;;;;;-1.06;77.86;98893.81;5954579;23;20095;-84
2024/01/15 03:40:49;;;;;;;42.28;13.50;;;;;;;-1.03;77.80;98883.22;5977703;23;20035;-84
2024/01/15 03:43:16;;;;;;;39.33;12.82;;;;;;;-1.11;77.99;98868.88;5977192;23;20016;-84
2024/01/15 03:45:43;;;;;;;39.40;13.73;;;;;;;-1.07;77.92;98881.72;5977116;23;20023;-84
2024/01/15 03:48:10;;;;;;;39.65;12.57;;;;;;;-1.09;77.98;98884.41;5999961;23;20352;-84
2024/01/15 03:50:37;;;;;;;32.85;12.38;;;;;;;-1.05;77.82;98908.53;5976380;23;20035;-83
2024/01/15 03:53:04;;;;;;;43.30;14.00;;;;;;;-1.04;78.10;98902.38;5977217;23;20083;-84
2024/01/15 03:55:31;;;;;;;36.53;12.90;;;;;;;-1.01;77.95;98897.03;5953757;23;20090;-84
2024/01/15 03:57:58;;;;;;;40.70;12.93;;;;;;;-1.02;77.98;98885.72;5952803;23;20034;-84
2024/01/15 04:00:24;;;;;;;40.00;13.73;;;;;;;-1.03;78.05;98878.00;5954710;23;20016;-85
2024/01/15 04:02:51;;;;;;;35.25;12.02;;;;;;;-1.02;77.97;98883.13;5976844;23;20016;-84
2024/01/15 04:05:18;;;;;;;30.75;12.25;;;;;;;-1.05;78.26;98866.84;5977727;23;20026;-85
2024/01/15 04:07:45;;;;;;;41.67;13.40;;;;;;;-1.14;78.57;98871.66;5953981;23;20024;-85
2024/01/15 04:10:12;;;;;;;39.70;12.63;;;;;;;-1.10;78.45;98860.09;5954029;23;20034;-85
2024/01/15 04:12:39;;;;;;;34.03;11.88;;;;;;;-1.08;78.41;98859.19;5977114;23;20340;-85
2024/01/15 04:15:06;;;;;;;29.95;11.68;;;;;;;-1.07;78.45;98860.88;5976861;23;20339;-85
2024/01/15 04:17:33;;;;;;;39.95;12.98;;;;;;;-1.07;78.18;98847.84;5953818;23;20024;-85
2024/01/15 04:20:00;;;;;;;38.75;13.40;;;;;;;-1.04;78.43;98858.94;6000752;23;20098;-85
2024/01/15 04:22:27;;;;;;;37.08;12.38;;;;;;;-1.08;78.51;98857.44;5975629;23;20416;-84
2024/01/15 04:24:54;;;;;;;40.88;13.10;;;;;;;-1.05;78.26;98853.81;5976427;23;20115;-84
2024/01/15 04:27:21;;;;;;;41.83;14.43;;;;;;;-1.06;78.28;98854.75;5953453;23;20027;-84
2024/01/15 04:29:47;;;;;;;34.88;12.80;;;;;;;-1.04;78.24;98839.84;5975743;23;20031;-86
2024/01/15 04:32:14;;;;;;;42.25;13.18;;;;;;;-1.03;78.40;98831.13;5976785;23;20028;-85
2024/01/15 04:34:41;;;;;;;35.75;12.52;;;;;;;-1.01;78.07;98824.91;5954419;23;20470;-85
2024/01/15 04:37:08;;;;;;;39.38;12.85;;;;;;;-1.04;78.33;98835.50;5954106;23;20348;-86
2024/01/15 04:39:35;;;;;;;33.42;11.50;;;;;;;-1.03;78.39;98860.63;5954602;23;20019;-86
2024/01/15 04:42:02;;;;;;;31.20;11.38;;;;;;;-0.99;78.42;98863.88;5977431;23;20084;-86
2024/01/15 04:44:29;;;;;;;37.67;12.50;;;;;;;-1.02;78.39;98862.28;5977727;23;20528;-85
2024/01/15 04:46:56;;;;;;;36.75;13.10;;;;;;;-1.01;78.24;98866.59;5977701;23;20023;-86
2024/01/15 04:49:26;;;;;;;36.65;13.52;;;;;;;-1.01;78.41;98852.72;5977788;23;20020;-86
2024/01/15 04:51:53;;;;;;;42.25;13.45;;;;;;;-1.03;78.74;98837.16;5975907;23;20023;-85
2024/01/15 04:54:20;;;;;;;40.88;13.23;;;;;;;-1.01;78.69;98835.31;6000447;23;20091;-85
2024/01/15 04:56:47;;;;;;;39.58;11.90;;;;;;;-1.01;78.60;98827.50;6000904;23;20023;-86
2024/01/15 04:59:14;;;;;;;31.05;11.63;;;;;;;-1.03;78.93;98837.16;5954313;23;20619;-85
2024/01/15 05:01:41;;;;;;;36.58;12.38;;;;;;;-1.11;79.12;98840.19;5954585;23;20540;-85
2024/01/15 05:04:08;;;;;;;33.72;12.00;;;;;;;-1.09;78.97;98832.31;5978311;23;20016;-86
2024/01/15 05:06:35;;;;;;;38.03;12.68;;;;;;;-1.07;79.04;98835.66;6001025;23;20024;-85
2024/01/15 05:09:03;;;;;;;34.63;11.82;;;;;;;-1.08;79.17;98833.16;6000708;23;20329;-85
2024/01/15 05:11:29;;;;;;;39.53;12.75;;;;;;;-1.04;78.85;98838.09;6001305;23;20027;-85
2024/01/15 05:13:56;;;;;;;39.35;12.57;;;;;;;-1.07;79.24;98822.63;5976849;23;20043;-86
2024/01/15 05:16:23;;;;;;;33.88;12.00;;;;;;;-1.08;79.41;98822.72;5954349;23;20112;-85
2024/01/15 05:18:50;;;;;;;35.95;12.30;;;;;;;-1.04;78.96;98819.00;5954773;23;20094;-85
2024/01/15 05:21:17;;;;;;;31.50;10.38;;;;;;;-1.03;78.98;98820.69;5978076;23;20027;-85
2024/01/15 05:23:44;;;;;;;29.25;11.82;;;;;;;-1.06;79.26;98831.31;5954980;23;20456;-86
2024/01/15 05:26:11;;;;;;;32.95;11.45;;;;;;;-1.01;78.99;98822.28;5975890;23;20034;-85
2024/01/15 05:28:37;;;;;;;32.80;12.20;;;;;;;-1.07;79.21;98827.84;6000643;23;20028;-85
2024/01/15 05:31:04;;;;;;;33.20;11.88;;;;;;;-1.04;79.34;98821.59;5953193;23;20051;-86
2024/01/15 05:33:31;;;;;;;32.08;11.52;;;;;;;-1.02;79.01;98822.38;5999926;23;20028;-85
2024/01/15 05:35:59;;;;;;;31.20;11.20;;;;;;;-1.05;79.24;98814.72;5952989;23;20662;-87
2024/01/15 05:38:26;;;;;;;32.97;11.40;;;;;;;-1.03;78.99;98807.66;5973047;23;20031;-85
2024/01/15 05:40:53;;;;;;;31.42;11.32;;;;;;;-1.00;78.89;98804.88;5950181;23;20035;-85
2024/01/15 05:43:19;;;;;;;33.85;11.75;;;;;;;-0.96;78.88;98817.66;5928990;23;20072;-85
2024/01/15 05:45:46;;;;;;;31.95;11.77;;;;;;;-1.02;79.58;98807.56;5950253;23;20603;-84
2024/01/15 05:48:13;;;;;;;31.77;11.75;;;;;;;-0.96;79.01;98812.44;5923822;23;20028;-87
2024/01/15 05:50:41;;;;;;;37.42;11.95;;;;;;;-1.01;79.45;98800.59;5994699;23;20032;-85
2024/01/15 05:53:08;;;;;;;34.45;11.60;;;;;;;-0.99;79.01;98802.19;5973599;23;20444;-85
2024/01/15 05:55:36;;;;;;;31.58;11.35;;;;;;;-0.97;79.24;98797.72;5946035;23;20050;-84
2024/01/15 05:58:02;;;;;;;41.90;15.05;;;;;;;-0.95;79.39;98792.44;5920006;23;20028;-83
2024/01/15 06:00:29;;;;;;;33.75;11.63;;;;;;;-1.01;79.55;98790.19;5939080;23;20030;-82
2024/01/15 06:02:56;;;;;;;36.63;12.50;;;;;;;-0.98;79.28;98793.44;5897273;23;20047;-82
2024/01/15 06:05:23;;;;;;;34.17;10.95;;;;;;;-0.98;79.39;98793.44;5919371;23;20059;-82
2024/01/15 06:07:50;;;;;;;32.10;12.32;;;;;;;-0.94;79.30;98794.09;5965718;23;20023;-83
2024/01/15 06:10:16;;;;;;;35.00;12.05;;;;;;;-0.93;79.28;98794.00;5941124;23;20352;-84
2024/01/15 06:12:43;;;;;;;32.25;11.68;;;;;;;-0.91;79.54;98786.97;5942792;23;20169;-84
2024/01/15 06:15:10;;;;;;;33.42;11.65;;;;;;;-0.90;79.47;98795.59;5943520;23;20094;-82
2024/01/15 06:17:37;;;;;;;33.60;11.18;;;;;;;-0.90;79.29;98790.41;5965806;23;20024;-83
2024/01/15 06:20:05;;;;;;;34.70;12.23;;;;;;;-0.89;79.49;98794.66;5966740;23;20024;-83
2024/01/15 06:22:31;;;;;;;32.05;11.90;;;;;;;-0.88;79.65;98780.72;5966765;23;20039;-84
2024/01/15 06:24:58;;;;;;;32.70;11.38;;;;;;;-0.90;79.97;98787.78;5943417;23;20032;-84
2024/01/15 06:27:25;;;;;;;35.38;12.75;;;;;;;-0.90;80.13;98785.19;5943933;23;20676;-83
2024/01/15 06:29:52;;;;;;;31.10;10.95;;;;;;;-0.90;79.84;98778.19;5941917;23;20028;-82
2024/01/15 06:32:19;;;;;;;28.90;11.75;;;;;;;-0.95;80.59;98776.78;5941901;23;20028;-82
2024/01/15 06:34:46;;;;;;;31.60;11.05;;;;;;;-0.91;79.97;98780.91;5948223;23;20019;-82
2024/01/15 06:37:13;;;;;;;29.13;10.90;;;;;;;-0.93;80.18;98781.00;5948697;23;20094;-83
2024/01/15 06:39:39;;;;;;;31.92;11.20;;;;;;;-0.94;80.56;98778.47;5965846;23;20681;-81
2024/01/15 06:42:06;;;;;;;32.05;12.27;;;;;;;-0.91;80.69;98783.50;5989321;23;20052;-79
2024/01/15 06:44:33;;;;;;;29.75;11.32;;;;;;;-0.89;80.04;98785.09;5965274;23;20034;-79
2024/01/15 06:47:02;;;;;;;28.08;11.55;;;;;;;-0.89;79.86;98769.47;5942450;23;20039;-80
2024/01/15 06:49:29;;;;;;;31.40;12.57;;;;;;;-0.90;80.35;98778.19;5987633;23;20044;-79
2024/01/15 06:51:56;;;;;;;30.85;10.35;;;;;;;-0.94;81.04;98778.47;5989861;23;20031;-82
2024/01/15 06:54:23;;;;;;;33.92;11.82;;;;;;;-0.95;81.21;98772.41;5968609;23;20464;-83
2024/01/15 06:56:50;;;;;;;36.03;11.63;;;;;;;-0.94;80.87;98779.31;5944164;23;20099;-79
2024/01/15 06:59:17;;;;;;;31.10;11.50;;;;;;;-0.92;80.79;98789.63;5985922;23;20460;-80
2024/01/15 07:01:46;;;;;;;31.52;12.50;;;;;;;-0.89;80.68;98790.31;5987774;23;20023;-80
2024/01/15 07:04:13;;;;;;;30.55;11.50;;;;;;;-0.86;80.62;98797.13;5991687;23;20469;-82
2024/01/15 07:06:40;;;;;;;28.67;9.95;;;;;;;-0.86;80.74;98799.72;5966925;23;20032;-80
2024/01/15 07:09:08;;;;;;;32.40;11.80;;;;;;;-0.83;80.88;98801.31;5987592;23;20047;-83
2024/01/15 07:11:35;;;;;;;31.27;12.25;;;;;;;-0.82;80.76;98789.94;5967548;23;20038;-81
2024/01/15 07:14:02;;;;;;;33.55;11.52;;;;;;;-0.83;80.79;98791.72;5951842;23;20027;-79
2024/01/15 07:16:29;;;;;;;30.10;11.15;;;;;;;-0.82;81.09;98792.56;5989911;23;20031;-81
2024/01/15 07:19:04;;;;;;;29.20;10.35;;;;;;;-0.82;81.06;98784.72;5964487;23;20074;-81
2024/01/15 07:21:31;;;;;;;28.95;11.63;;;;;;;-0.82;81.04;98795.16;5965504;23;20062;-80
2024/01/15 07:23:58;;;;;;;27.48;11.43;;;;;;;-0.82;81.61;98788.16;5988042;23;20868;-81
2024/01/15 07:26:25;;;;;;;28.75;11.38;;;;;;;-0.82;81.34;98793.38;5993099;23;20023;-82
2024/01/15 07:28:52;;;;;;;33.45;12.05;;;;;;;-0.89;82.90;98789.44;5987834;23;20110;-81
2024/01/15 07:31:19;;;;;;;35.05;13.70;;;;;;;-0.85;81.88;98796.19;5966099;23;20126;-80
2024/01/15 07:33:46;;;;;;;33.00;12.48;;;;;;;-0.86;81.37;98789.28;5966212;23;20070;-81
2024/01/15 07:36:13;;;;;;;31.17;11.32;;;;;;;-0.83;81.60;98796.09;5966456;23;20075;-79
2024/01/15 07:38:40;;;;;;;24.05;9.90;;;;;;;-0.82;81.59;98806.41;5941636;23;20356;-82
2024/01/15 07:41:07;;;;;;;28.40;10.60;;;;;;;-0.85;82.05;98800.56;5966196;23;20079;-81
2024/01/15 07:43:34;;;;;;;31.02;12.00;;;;;;;-0.87;82.38;98813.66;5966833;23;20027;-81
2024/01/15 07:46:02;;;;;;;22.10;8.82;;;;;;;-0.85;82.17;98817.03;5966198;23;20034;-83
2024/01/15 07:48:29;;;;;;;27.92;10.77;;;;;;;-0.88;82.92;98814.59;5964984;23;20689;-82
2024/01/15 07:50:56;;;;;;;28.15;10.68;;;;;;;-0.87;82.64;98805.84;5942192;23;20024;-82
2024/01/15 07:53:22;;;;;;;29.15;11.15;;;;;;;-0.87;82.65;98805.84;5992642;23;20484;-82
2024/01/15 07:55:49;;;;;;;28.83;10.55;;;;;;;-0.88;83.13;98805.00;5967987;23;20027;-81
2024/01/15 07:58:16;;;;;;;29.08;11.43;;;;;;;-0.91;83.87;98813.00;5965264;23;20027;-81
2024/01/15 08:00:43;;;;;;;26.15;11.02;;;;;;;-0.88;83.46;98805.00;5989245;23;20051;-81
2024/01/15 08:03:11;;;;;;;26.55;9.55;;;;;;;-0.86;83.24;98807.53;5986233;23;20026;-80
2024/01/15 08:05:38;;;;;;;26.30;11.20;;;;;;;-0.88;83.65;98809.38;5938921;23;20819;-80
2024/01/15 08:08:05;;;;;;;32.40;11.80;;;;;;;-0.86;83.60;98796.28;5939245;23;20031;-79
2024/01/15 08:10:32;;;;;;;27.05;10.40;;;;;;;-0.84;83.32;98804.81;5958981;23;20028;-80
2024/01/15 08:12:58;;;;;;;24.30;9.95;;;;;;;-0.82;83.19;98808.19;5938362;23;20034;-80
2024/01/15 08:15:25;;;;;;;23.38;10.15;;;;;;;-0.87;83.92;98798.03;5962821;23;20050;-80
2024/01/15 08:17:57;;;;;;;29.38;11.88;;;;;;;-0.81;83.02;98802.06;5960948;23;20069;-79
2024/01/15 08:20:25;;;;;;;22.70;9.52;;;;;;;-0.77;82.73;98793.13;5956904;23;20035;-80
2024/01/15 08:22:52;;;;;;;23.20;10.35;;;;;;;-0.75;82.86;98802.53;5958798;23;20427;-81
2024/01/15 08:25:19;;;;;;;24.75;10.18;;;;;;;-0.75;83.20;98786.06;5934435;23;20031;-81
2024/01/15 08:27:45;;;;;;;26.85;10.35;;;;;;;-0.71;82.31;98795.38;5960436;23;20035;-79
2024/01/15 08:30:13;;;;;;;26.00;9.82;;;;;;;-0.70;82.82;98791.84;5955371;23;20123;-80
2024/01/15 08:32:43;;;;;;;27.50;11.50;;;;;;;-0.73;83.34;98787.63;5962067;23;20032;-83
2024/01/15 08:35:10;;;;;;;26.50;10.40;;;;;;;-0.69;82.69;98786.53;5961286;23;20028;-82
2024/01/15 08:37:38;;;;;;;32.30;10.40;;;;;;;-0.68;82.65;98783.00;5933261;23;20032;-82
2024/01/15 08:40:05;;;;;;;30.15;10.75;;;;;;;-0.67;83.09;98776.00;5931281;23;20032;-82
2024/01/15 08:42:32;;;;;;;29.55;11.18;;;;;;;-0.66;83.09;98781.13;5933409;23;20050;-82
2024/01/15 08:44:58;;;;;;;27.08;10.57;;;;;;;-0.63;82.83;98779.28;5933608;23;20027;-82
2024/01/15 08:47:25;;;;;;;25.98;10.02;;;;;;;-0.64;83.26;98785.41;5958015;23;20024;-85
2024/01/15 08:49:53;;;;;;;29.67;11.32;;;;;;;-0.68;83.82;98788.22;5932767;23;20048;-87
2024/01/15 08:52:20;;;;;;;23.27;10.50;;;;;;;-0.63;83.55;98785.34;5916381;23;20032;-82
2024/01/15 08:54:47;;;;;;;29.88;11.15;;;;;;;-0.62;84.27;98781.78;5935425;23;20048;-87
2024/01/15 08:57:14;;;;;;;27.75;10.82;;;;;;;-0.61;83.77;98780.88;5959622;23;20032;-84
2024/01/15 08:59:41;;;;;;;26.98;11.40;;;;;;;-0.57;83.74;98786.72;5931130;23;20047;-84
2024/01/15 09:02:08;;;;;;;28.20;10.70;;;;;;;-0.56;84.34;98780.56;5936686;23;20031;-86
2024/01/15 09:04:35;;;;;;;27.77;10.57;;;;;;;-0.55;84.29;98775.28;5915368;23;20032;-83
2024/01/15 09:07:02;;;;;;;25.50;9.70;;;;;;;-0.54;84.13;98771.72;5963264;23;20131;-84
2024/01/15 09:09:29;;;;;;;29.40;11.20;;;;;;;-0.52;84.37;98769.88;5958809;23;20472;-84
2024/01/15 09:11:56;;;;;;;27.48;11.52;;;;;;;-0.52;84.74;98767.25;5938898;23;20035;-83
2024/01/15 09:14:24;;;;;;;24.00;10.70;;;;;;;-0.50;84.49;98770.63;5964854;23;20080;-84
2024/01/15 09:17:04;;;;;;;32.85;12.57;;;;;;;-0.50;84.56;98770.63;5942389;23;20547;-83
2024/01/15 09:19:31;;;;;;;31.58;12.95;;;;;;;-0.49;84.65;98774.06;5960373;23;20080;-84
2024/01/15 09:21:58;;;;;;;24.75;10.30;;;;;;;-0.50;85.33;98773.22;5966540;23;20492;-83
2024/01/15 09:24:25;;;;;;;34.08;13.00;;;;;;;-0.51;85.51;98766.34;5941692;23;20083;-83
2024/01/15 09:26:54;;;;;;;34.22;14.32;;;;;;;-0.49;85.47;98767.06;5965838;23;20066;-82
2024/01/15 09:29:23;;;;;;;28.65;11.32;;;;;;;-0.46;85.58;98768.66;5960897;23;20030;-83
2024/01/15 09:31:50;;;;;;;30.80;10.98;;;;;;;-0.46;86.03;98764.31;5964493;23;20027;-83
2024/01/15 09:34:17;;;;;;;27.27;12.38;;;;;;;-0.44;85.86;98751.16;5919010;23;20030;-83
2024/01/15 09:36:44;;;;;;;27.10;10.25;;;;;;;-0.41;85.61;98753.56;5963770;23;20744;-84
2024/01/15 09:39:11;;;;;;;28.40;11.88;;;;;;;-0.39;86.11;98751.72;5936823;23;20715;-85
2024/01/15 09:41:38;;;;;;;27.67;10.98;;;;;;;-0.39;88.88;98750.88;5919324;23;20080;-86
2024/01/15 09:44:05;;;;;;;27.98;11.13;;;;;;;-0.34;86.65;98754.88;5964063;23;20712;-83
2024/01/15 09:46:33;;;;;;;24.17;10.63;;;;;;;-0.33;86.66;98753.97;5940961;23;20494;-82
2024/01/15 09:49:00;;;;;;;30.10;11.32;;;;;;;-0.34;87.13;98756.66;5914398;23;20115;-84
2024/01/15 09:51:31;;;;;;;27.80;10.85;;;;;;;-0.34;87.48;98760.09;5940473;23;20792;-84
2024/01/15 09:53:58;;;;;;;25.38;9.63;;;;;;;-0.37;88.58;98749.84;5964285;23;20028;-83
2024/01/15 09:56:25;;;;;;;23.02;9.73;;;;;;;-0.34;87.07;98749.66;5964639;23;20461;-85
2024/01/15 09:58:52;;;;;;;22.23;10.40;;;;;;;-0.36;88.38;98748.91;5937881;23;20024;-86
2024/01/15 10:01:22;;;;;;;27.35;10.60;;;;;;;-0.36;87.81;98754.13;5941213;23;20492;-86
2024/01/15 10:03:50;;;;;;;25.75;9.60;;;;;;;-0.36;87.70;98748.09;5918146;23;20119;-80
2024/01/15 10:06:17;;;;;;;20.65;9.52;;;;;;;-0.37;88.82;98743.81;5963968;23;20774;-79
2024/01/15 10:08:51;;;;;;;22.40;9.82;;;;;;;-0.38;88.41;98739.50;5936544;23;20057;-79
2024/01/15 10:11:18;;;;;;;24.85;11.35;;;;;;;-0.37;89.48;98735.97;5964547;23;20031;-80
2024/01/15 10:13:46;;;;;;;25.67;11.52;;;;;;;-0.35;88.82;98734.97;5963719;23;20031;-79
2024/01/15 10:16:15;;;;;;;25.27;9.88;;;;;;;-0.33;88.39;98722.66;5963356;23;20039;-79
2024/01/15 10:18:42;;;;;;;34.03;14.02;;;;;;;-0.35;91.27;98724.53;5910792;23;20028;-79
2024/01/15 10:21:09;;;;;;;33.95;12.88;;;;;;;-0.32;89.84;98716.50;5916624;23;20060;-80
2024/01/15 10:23:36;;;;;;;24.48;9.35;;;;;;;-0.26;89.73;98723.09;5963911;23;20024;-79
2024/01/15 10:26:03;;;;;;;23.50;9.93;;;;;;;-0.23;89.21;98725.53;5938829;23;20390;-79
2024/01/15 10:28:31;;;;;;;23.02;10.48;;;;;;;-0.20;89.21;98714.91;5958989;23;20540;-80
2024/01/15 10:30:59;;;;;;;24.05;10.45;;;;;;;-0.23;90.00;98715.09;5960540;23;20463;-78
2024/01/15 10:33:26;;;;;;;27.52;10.77;;;;;;;-0.23;89.54;98717.69;5915510;23;20707;-78
2024/01/15 10:35:57;;;;;;;28.90;11.70;;;;;;;-0.22;89.08;98708.94;5960085;23;20028;-78
2024/01/15 10:38:24;;;;;;;21.48;10.00;;;;;;;-0.22;89.16;98701.97;5958590;23;20080;-79
2024/01/15 10:40:55;;;;;;;24.92;10.75;;;;;;;-0.23;90.10;98705.50;5936549;23;23282;-80
2024/01/15 10:43:22;;;;;;;24.33;9.73;;;;;;;-0.22;89.19;98707.19;5962381;23;20035;-79
2024/01/15 10:45:53;;;;;;;23.95;9.82;;;;;;;-0.22;89.65;98701.97;5956719;23;20051;-78
2024/01/15 10:48:20;;;;;;;26.63;10.05;;;;;;;-0.22;89.70;98695.91;5966026;23;20457;-79
2024/01/15 10:50:48;;;;;;;21.75;9.82;;;;;;;-0.21;89.90;98694.97;5919445;23;20448;-79
2024/01/15 10:53:16;;;;;;;24.83;10.60;;;;;;;-0.20;89.67;98696.66;5968214;23;20039;-80
2024/01/15 10:55:43;;;;;;;25.10;10.35;;;;;;;-0.20;90.75;98695.78;5967098;23;20724;-79
2024/01/15 10:58:10;;;;;;;23.10;10.95;;;;;;;-0.22;89.67;98691.53;5942266;23;20107;-79
2024/01/15 11:00:37;;;;;;;25.05;10.52;;;;;;;-0.18;89.85;98696.53;5929507;23;20115;-78
2024/01/15 11:03:06;;;;;;;23.95;10.93;;;;;;;-0.20;89.86;98699.25;5966183;23;20123;-78
2024/01/15 11:05:41;;;;;;;25.05;11.57;;;;;;;-0.20;89.98;98696.66;5966880;23;20039;-79
2024/01/15 11:08:08;;;;;;;27.42;11.50;;;;;;;-0.18;90.14;98696.53;6013639;23;20111;-79
2024/01/15 11:10:42;;;;;;;20.75;9.82;;;;;;;-0.18;90.17;98701.75;5961697;23;20032;-79
2024/01/15 11:13:36;;;;;;;24.25;10.40;;;;;;;-0.21;91.68;98702.78;5944327;23;20110;-78
2024/01/15 11:16:04;;;;;;;18.33;9.20;;;;;;;-0.18;89.98;98704.38;5984065;23;20031;-78